createdAt,value
2022-08-22T00:01:27.297Z,101037.28
2022-08-22T00:02:57.905Z,101097.88
2022-08-22T00:04:03.514Z,101028.91
2022-08-22T00:06:56.169Z,101013.91
2022-08-22T00:09:27.478Z,101074.56
2022-08-22T00:12:12.427Z,101138.78
2022-08-22T00:14:44.806Z,101120.31
2022-08-22T00:17:15.530Z,101098.75
2022-08-22T00:19:47.459Z,101076.06
2022-08-22T00:22:19.687Z,101053.13
2022-08-22T00:24:52.024Z,101021.00
2022-08-22T00:27:20.356Z,101021.03
2022-08-22T00:29:49.671Z,101090.31
2022-08-22T00:32:35.178Z,101088.50
2022-08-22T00:35:03.393Z,101124.56
2022-08-22T00:37:37.506Z,101141.66
2022-08-22T00:40:08.560Z,101165.63
2022-08-22T00:42:34.782Z,101169.56
2022-08-22T00:45:19.597Z,101157.16
2022-08-22T00:47:45.785Z,101130.09
2022-08-22T00:50:15.066Z,101102.13
2022-08-22T00:52:44.303Z,101051.25
2022-08-22T00:55:35.142Z,101050.03
2022-08-22T00:58:20.411Z,101082.13
2022-08-22T01:00:53.524Z,101042.84
2022-08-22T01:03:28.966Z,101000.09
2022-08-22T01:06:07.833Z,100982.44
2022-08-22T01:08:52.531Z,100981.38
2022-08-22T01:11:18.706Z,100984.03
2022-08-22T01:14:03.676Z,100991.16
2022-08-22T01:16:39.872Z,100987.44
2022-08-22T01:19:23.223Z,100999.31
2022-08-22T01:22:08.412Z,101072.91
2022-08-22T01:24:47.642Z,101065.47
2022-08-22T01:27:51.041Z,101066.56
2022-08-22T01:30:18.316Z,101056.50
2022-08-22T01:32:56.994Z,101039.66
2022-08-22T01:35:46.789Z,101044.41
2022-08-22T01:38:31.957Z,101056.81
2022-08-22T01:41:12.332Z,101055.50
2022-08-22T01:44:00.559Z,101076.59
2022-08-22T01:46:27.206Z,101071.84
2022-08-22T01:48:55.616Z,101072.94
2022-08-22T01:51:36.458Z,101074.22
2022-08-22T01:54:05.495Z,101085.00
2022-08-22T01:56:32.848Z,101070.53
2022-08-22T01:59:01.713Z,101068.94
2022-08-22T02:01:33.928Z,101043.13
2022-08-22T02:04:12.375Z,101039.72
2022-08-22T02:06:50.239Z,101043.94
2022-08-22T02:09:34.727Z,101050.25
2022-08-22T02:12:13.935Z,101050.50
2022-08-22T02:15:07.045Z,101024.72
2022-08-22T02:17:34.085Z,101060.56
2022-08-22T02:20:06.700Z,101055.53
2022-08-22T02:22:32.896Z,101048.72
2022-08-22T02:25:08.938Z,101051.34
2022-08-22T02:27:44.460Z,101041.63
2022-08-22T02:30:14.963Z,101050.56
2022-08-22T02:32:41.134Z,101059.53
2022-08-22T02:35:07.344Z,101054.25
2022-08-22T02:37:35.666Z,101048.44
2022-08-22T02:40:05.027Z,101072.97
2022-08-22T02:42:36.567Z,101097.44
2022-08-22T02:45:21.375Z,101098.75
2022-08-22T02:47:53.694Z,101090.31
2022-08-22T02:50:28.005Z,101093.50
2022-08-22T02:52:58.794Z,101094.78
2022-08-22T02:55:28.006Z,101072.69
2022-08-22T02:57:57.242Z,101053.47
2022-08-22T03:00:31.107Z,101070.59
2022-08-22T03:03:03.129Z,101116.88
2022-08-22T03:05:38.417Z,101176.91
2022-08-22T03:08:04.595Z,101159.03
2022-08-22T03:10:34.504Z,101156.66
2022-08-22T03:13:11.058Z,101153.53
2022-08-22T03:15:38.831Z,101111.66
2022-08-22T03:18:37.701Z,101079.03
2022-08-22T03:21:13.091Z,101048.50
2022-08-22T03:23:43.431Z,101046.41
2022-08-22T03:26:26.292Z,101056.41
2022-08-22T03:29:00.149Z,101059.03
2022-08-22T03:31:26.957Z,101048.25
2022-08-22T03:34:12.102Z,101040.56
2022-08-22T03:36:38.355Z,101025.56
2022-08-22T03:39:22.438Z,101033.22
2022-08-22T03:41:56.116Z,101090.06
2022-08-22T03:44:42.605Z,101083.50
2022-08-22T03:47:28.626Z,101070.88
2022-08-22T03:50:13.779Z,101049.25
2022-08-22T03:52:58.459Z,101049.03
2022-08-22T03:55:49.398Z,101032.97
2022-08-22T03:58:30.506Z,101059.56
2022-08-22T04:01:08.971Z,101086.13
2022-08-22T04:03:53.941Z,101144.22
2022-08-22T04:06:26.019Z,101152.97
2022-08-22T04:08:52.596Z,101111.69
2022-08-22T04:11:28.834Z,101087.19
2022-08-22T04:14:13.825Z,101084.81
2022-08-22T04:16:58.653Z,101064.56
2022-08-22T04:19:27.633Z,101067.72
2022-08-22T04:22:02.796Z,101063.75
2022-08-22T04:24:28.986Z,101085.34
2022-08-22T04:27:00.217Z,101082.16
2022-08-22T04:29:28.264Z,101147.16
2022-08-22T04:31:57.236Z,101228.66
2022-08-22T04:34:53.001Z,101232.09
2022-08-22T04:37:29.815Z,101196.09
2022-08-22T04:40:00.057Z,101158.22
2022-08-22T04:42:32.996Z,101144.28
2022-08-22T04:45:04.902Z,101171.31
2022-08-22T04:47:39.073Z,101147.16
2022-08-22T04:50:10.272Z,101119.25
2022-08-22T04:52:36.470Z,101145.81
2022-08-22T04:55:19.206Z,101188.66
2022-08-22T04:58:05.064Z,101187.66
2022-08-22T05:00:44.731Z,101162.72
2022-08-22T05:03:12.111Z,101150.34
2022-08-22T05:05:38.855Z,101210.56
2022-08-22T05:08:05.334Z,101246.97
2022-08-22T05:10:38.498Z,101164.19
2022-08-22T05:13:09.141Z,101074.91
2022-08-22T05:15:36.275Z,101013.00
2022-08-22T05:18:05.234Z,100971.28
2022-08-22T05:20:31.527Z,100929.34
2022-08-22T05:22:58.960Z,100951.66
2022-08-22T05:25:27.038Z,101064.31
2022-08-22T05:27:56.243Z,101110.25
2022-08-22T05:30:26.206Z,101198.38
2022-08-22T05:32:57.754Z,101255.50
2022-08-22T05:35:27.717Z,101286.47
2022-08-22T05:37:53.940Z,101302.34
2022-08-22T05:40:24.735Z,101297.63
2022-08-22T05:42:51.021Z,101295.88
2022-08-22T05:45:17.311Z,101286.22
2022-08-22T05:47:55.073Z,101292.31
2022-08-22T05:50:23.866Z,101267.97
2022-08-22T05:53:04.588Z,101256.25
2022-08-22T05:55:39.510Z,101201.16
2022-08-22T05:58:14.901Z,101074.63
2022-08-22T06:00:42.658Z,100933.53
2022-08-22T06:03:16.539Z,100864.53
2022-08-22T06:05:42.983Z,100832.31
2022-08-22T06:08:26.994Z,100790.59
2022-08-22T06:10:57.315Z,100857.03
2022-08-22T06:13:26.389Z,100788.50
2022-08-22T06:16:07.200Z,100742.47
2022-08-22T06:18:35.722Z,100678.94
2022-08-22T06:21:02.657Z,100712.28
2022-08-22T06:23:34.993Z,100709.31
2022-08-22T06:26:01.240Z,100658.16
2022-08-22T06:28:33.528Z,100549.03
2022-08-22T06:30:59.783Z,100597.03
2022-08-22T06:33:29.501Z,100500.25
2022-08-22T06:36:00.804Z,100728.44
2022-08-22T06:38:28.464Z,100836.28
2022-08-22T06:40:54.708Z,100652.53
2022-08-22T06:43:21.982Z,100621.25
2022-08-22T06:45:48.219Z,100653.59
2022-08-22T06:48:18.699Z,100677.88
2022-08-22T06:50:45.480Z,100589.72
2022-08-22T06:53:13.486Z,100487.28
2022-08-22T06:55:40.298Z,100549.72
2022-08-22T06:58:17.069Z,100511.44
2022-08-22T07:00:43.308Z,100679.22
2022-08-22T07:03:10.961Z,100778.66
2022-08-22T07:05:38.403Z,100890.72
2022-08-22T07:08:05.494Z,100721.22
2022-08-22T07:10:31.737Z,100718.19
2022-08-22T07:12:57.983Z,100638.31
2022-08-22T07:15:31.280Z,100626.72
2022-08-22T07:17:58.333Z,100678.38
2022-08-22T07:20:26.562Z,100785.97
2022-08-22T07:22:54.361Z,100737.72
2022-08-22T07:25:20.607Z,100816.75
2022-08-22T07:27:49.822Z,100847.66
2022-08-22T07:30:16.659Z,100789.47
2022-08-22T07:32:55.319Z,100647.38
2022-08-22T07:35:32.000Z,100575.31
2022-08-22T07:37:59.993Z,100804.19
2022-08-22T07:40:39.194Z,100825.63
2022-08-22T07:43:37.844Z,100745.31
2022-08-22T07:46:11.328Z,100884.53
2022-08-22T07:49:06.204Z,100937.75
2022-08-22T07:51:35.140Z,101089.38
2022-08-22T07:54:02.436Z,100928.03
2022-08-22T07:56:34.244Z,100747.44
2022-08-22T07:59:12.948Z,100726.00
2022-08-22T08:01:42.099Z,100779.06
2022-08-22T08:04:08.761Z,100731.22
2022-08-22T08:06:35.062Z,100817.56
2022-08-22T08:09:01.288Z,100881.06
2022-08-22T08:11:28.238Z,100921.94
2022-08-22T08:13:55.971Z,100932.84
2022-08-22T08:16:23.337Z,100912.66
2022-08-22T08:18:50.041Z,100832.84
2022-08-22T08:21:27.213Z,100777.59
2022-08-22T08:23:53.450Z,100503.53
2022-08-22T08:26:21.824Z,100700.56
2022-08-22T08:28:48.605Z,100731.44
2022-08-22T08:31:14.809Z,100900.09
2022-08-22T08:33:41.583Z,100920.75
2022-08-22T08:36:25.305Z,100724.22
2022-08-22T08:38:54.538Z,100811.00
2022-08-22T08:41:22.630Z,100744.53
2022-08-22T08:43:54.965Z,101105.97
2022-08-22T08:46:34.531Z,100934.78
2022-08-22T08:49:06.734Z,101065.97
2022-08-22T08:51:59.076Z,101126.47
2022-08-22T08:54:43.863Z,101184.25
2022-08-22T08:57:28.725Z,101164.22
2022-08-22T09:00:07.665Z,101162.31
2022-08-22T09:02:38.189Z,100854.66
2022-08-22T09:05:26.339Z,101072.06
2022-08-22T09:07:55.725Z,100627.88
2022-08-22T09:10:40.096Z,100548.94
2022-08-22T09:13:27.382Z,100767.66
2022-08-22T09:18:52.928Z,100582.69
2022-08-22T09:24:24.164Z,100357.16
2022-08-22T09:26:52.037Z,100300.81
2022-08-22T09:29:31.849Z,100428.44
2022-08-22T09:32:05.564Z,100389.94
2022-08-22T09:34:58.343Z,100533.88
2022-08-22T09:37:25.260Z,100554.88
2022-08-22T09:39:59.811Z,100567.34
2022-08-22T09:42:29.205Z,100419.97
2022-08-22T09:45:19.178Z,100578.34
2022-08-22T09:47:51.434Z,100639.72
2022-08-22T09:50:26.044Z,100740.22
2022-08-22T09:53:14.829Z,100807.22
2022-08-22T09:55:44.529Z,100843.75
2022-08-22T09:58:22.311Z,100721.44
2022-08-22T10:00:55.760Z,100861.81
2022-08-22T10:03:25.234Z,100672.97
2022-08-22T10:05:55.681Z,100565.16
2022-08-22T10:08:26.373Z,100418.34
2022-08-22T10:10:55.863Z,100579.91
2022-08-22T10:13:26.318Z,100405.34
2022-08-22T10:16:01.666Z,100317.81
2022-08-22T10:18:31.625Z,100224.09
2022-08-22T10:21:13.151Z,100569.78
2022-08-22T10:23:41.765Z,100571.81
2022-08-22T10:26:22.871Z,100693.00
2022-08-22T10:28:56.284Z,100554.88
2022-08-22T10:31:25.277Z,100795.19
2022-08-22T10:33:51.456Z,100622.78
2022-08-22T10:36:20.445Z,100659.19
2022-08-22T10:38:48.230Z,100905.94
2022-08-22T10:41:22.567Z,101153.13
2022-08-22T10:44:00.878Z,101139.31
2022-08-22T10:46:34.518Z,100859.59
2022-08-22T10:49:05.809Z,100968.19
2022-08-22T10:51:45.855Z,101055.44
2022-08-22T10:54:24.253Z,100992.84
2022-08-22T10:56:51.883Z,101109.16
2022-08-22T10:59:33.413Z,101111.31
2022-08-22T11:02:08.174Z,101008.66
2022-08-22T11:04:46.755Z,100932.91
2022-08-22T11:07:17.256Z,100956.94
2022-08-22T11:09:45.094Z,100732.13
2022-08-22T11:12:22.106Z,100825.03
2022-08-22T11:14:58.735Z,100891.59
2022-08-22T11:17:30.824Z,100628.81
2022-08-22T11:20:19.724Z,100633.84
2022-08-22T11:23:05.018Z,100826.28
2022-08-22T11:25:38.748Z,100967.13
2022-08-22T11:28:25.745Z,100990.81
2022-08-22T11:30:59.884Z,100948.31
2022-08-22T11:33:46.561Z,100935.72
2022-08-22T11:36:32.814Z,100807.78
2022-08-22T11:39:01.479Z,100519.06
2022-08-22T11:41:37.005Z,100621.53
2022-08-22T11:44:06.744Z,100645.03
2022-08-22T11:46:33.872Z,100480.22
2022-08-22T11:49:04.880Z,100705.16
2022-08-22T11:51:50.570Z,100256.56
2022-08-22T11:54:19.198Z,100236.75
2022-08-22T11:56:47.151Z,100041.56
2022-08-22T11:59:33.908Z,100715.31
2022-08-22T12:02:08.746Z,100962.22
2022-08-22T12:04:35.048Z,101049.38
2022-08-22T12:07:20.193Z,100981.47
2022-08-22T12:09:54.615Z,101116.16
2022-08-22T12:12:24.739Z,101227.13
2022-08-22T12:14:54.727Z,101346.75
2022-08-22T12:17:50.733Z,101325.56
2022-08-22T12:20:16.376Z,101320.25
2022-08-22T12:22:49.967Z,101264.78
2022-08-22T12:25:28.556Z,101279.81
2022-08-22T12:28:01.873Z,101300.78
2022-08-22T12:30:29.331Z,101303.59
2022-08-22T12:33:01.704Z,101307.97
2022-08-22T12:35:30.208Z,101296.53
2022-08-22T12:37:59.535Z,101277.88
2022-08-22T12:40:36.597Z,101290.53
2022-08-22T12:43:18.718Z,101303.03
2022-08-22T12:46:03.872Z,101303.53
2022-08-22T12:48:53.169Z,101263.75
2022-08-22T12:51:29.515Z,101223.66
2022-08-22T12:54:16.701Z,101207.72
2022-08-22T12:56:53.189Z,101216.03
2022-08-22T12:59:19.380Z,101219.13
2022-08-22T13:01:46.284Z,101215.25
2022-08-22T13:04:19.160Z,101218.97
2022-08-22T13:07:17.958Z,101196.75
2022-08-22T13:09:48.464Z,101172.50
2022-08-22T13:12:19.857Z,101153.88
2022-08-22T13:14:46.574Z,101155.13
2022-08-22T13:17:23.854Z,101145.59
2022-08-22T13:19:55.313Z,101143.41
2022-08-22T13:22:26.649Z,101092.56
2022-08-22T13:24:58.355Z,101066.72
2022-08-22T13:27:32.349Z,101080.34
2022-08-22T13:30:00.982Z,101147.63
2022-08-22T13:32:30.393Z,101142.13
2022-08-22T13:34:58.395Z,101101.78
2022-08-22T13:37:29.481Z,101058.44
2022-08-22T13:39:58.483Z,101124.28
2022-08-22T13:42:27.688Z,101109.44
2022-08-22T13:44:57.678Z,101140.41
2022-08-22T13:47:24.589Z,101187.00
2022-08-22T13:50:09.675Z,101155.88
2022-08-22T13:52:38.173Z,101108.81
2022-08-22T13:55:22.526Z,101063.13
2022-08-22T13:57:54.789Z,101167.19
2022-08-22T14:00:51.436Z,101081.44
2022-08-22T14:03:25.109Z,101082.03
2022-08-22T14:05:53.175Z,101027.72
2022-08-22T14:08:23.100Z,100946.34
2022-08-22T14:11:02.056Z,100914.28
2022-08-22T14:13:47.036Z,100888.78
2022-08-22T14:16:21.192Z,100965.75
2022-08-22T14:18:48.313Z,100939.81
2022-08-22T14:21:16.393Z,100957.34
2022-08-22T14:23:43.482Z,101029.59
2022-08-22T14:26:09.755Z,101006.03
2022-08-22T14:28:39.035Z,101048.41
2022-08-22T14:31:06.906Z,101007.91
2022-08-22T14:33:35.197Z,101065.63
2022-08-22T14:36:02.243Z,101044.47
2022-08-22T14:38:35.416Z,101096.75
2022-08-22T14:41:05.881Z,101042.31
2022-08-22T14:43:32.063Z,101020.91
2022-08-22T14:46:02.359Z,100973.47
2022-08-22T14:48:32.254Z,101049.19
2022-08-22T14:51:01.121Z,101018.22
2022-08-22T14:53:31.369Z,101057.50
2022-08-22T14:56:18.336Z,101010.84
2022-08-22T14:58:49.209Z,100951.53
2022-08-22T15:01:16.117Z,100939.94
2022-08-22T15:03:43.227Z,101023.50
2022-08-22T15:06:11.479Z,100938.66
2022-08-22T15:08:42.146Z,100941.94
2022-08-22T15:11:13.015Z,101007.19
2022-08-22T15:13:41.691Z,101093.00
2022-08-22T15:16:17.912Z,101006.25
2022-08-22T15:18:51.890Z,101050.28
2022-08-22T15:21:25.691Z,100974.81
2022-08-22T15:23:53.400Z,101063.56
2022-08-22T15:26:28.108Z,101024.09
2022-08-22T15:29:04.517Z,101075.16
2022-08-22T15:31:32.469Z,101149.81
2022-08-22T15:34:05.827Z,101153.28
2022-08-22T15:36:32.048Z,101177.06
2022-08-22T15:39:17.209Z,101136.38
2022-08-22T15:41:47.478Z,101096.13
2022-08-22T15:44:32.157Z,101087.81
2022-08-22T15:46:59.565Z,101109.44
2022-08-22T15:49:27.780Z,101069.03
2022-08-22T15:52:00.025Z,101061.47
2022-08-22T15:54:28.373Z,101044.72
2022-08-22T15:57:10.034Z,100998.28
2022-08-22T15:59:48.014Z,101042.44
2022-08-22T16:02:22.168Z,100951.09
2022-08-22T16:05:00.425Z,101108.31
2022-08-22T16:07:32.514Z,101008.66
2022-08-22T16:09:58.751Z,101124.59
2022-08-22T16:12:24.947Z,101156.06
2022-08-22T16:14:51.289Z,101156.56
2022-08-22T16:17:26.569Z,101178.19
2022-08-22T16:20:08.007Z,101067.47
2022-08-22T16:22:54.841Z,101081.06
2022-08-22T16:25:23.573Z,101088.78
2022-08-22T16:27:54.198Z,101150.91
2022-08-22T16:30:29.971Z,101161.38
2022-08-22T16:32:56.244Z,101082.34
2022-08-22T16:35:41.248Z,101129.03
2022-08-22T16:38:07.490Z,101194.25
2022-08-22T16:40:33.794Z,101235.88
2022-08-22T16:43:29.505Z,101185.97
2022-08-22T16:45:58.290Z,101260.22
2022-08-22T16:48:25.780Z,101282.91
2022-08-22T16:51:08.724Z,101230.34
2022-08-22T16:53:34.910Z,101208.88
2022-08-22T16:56:13.164Z,101216.38
2022-08-22T16:58:59.221Z,101174.78
2022-08-22T17:02:04.921Z,101182.25
2022-08-22T17:04:43.250Z,101200.47
2022-08-22T17:07:21.915Z,101207.13
2022-08-22T17:09:48.118Z,101208.41
2022-08-22T17:12:17.797Z,101207.59
2022-08-22T17:14:54.544Z,101211.44
2022-08-22T17:17:32.976Z,101217.88
2022-08-22T17:20:07.460Z,101202.69
2022-08-22T17:22:46.898Z,101202.84
2022-08-22T17:25:19.139Z,101197.53
2022-08-22T17:27:46.877Z,101194.88
2022-08-22T17:30:34.508Z,101175.03
2022-08-22T17:33:19.446Z,101193.00
2022-08-22T17:36:20.264Z,101193.13
2022-08-22T17:39:03.406Z,101172.47
2022-08-22T17:41:36.973Z,101191.66
2022-08-22T17:44:22.069Z,101205.09
2022-08-22T17:46:50.052Z,101194.63
2022-08-22T17:49:25.380Z,101238.63
2022-08-22T17:51:57.508Z,101237.75
2022-08-22T17:54:23.688Z,101261.75
2022-08-22T17:57:05.142Z,101248.31
2022-08-22T17:59:34.092Z,101263.16
2022-08-22T18:02:14.361Z,101246.22
2022-08-22T18:04:47.627Z,101244.38
2022-08-22T18:07:13.892Z,101246.75
2022-08-22T18:09:45.257Z,101261.97
2022-08-22T18:12:15.596Z,101274.88
2022-08-22T18:14:48.518Z,101265.34
2022-08-22T18:17:17.584Z,101275.94
2022-08-22T18:19:51.589Z,101273.63
2022-08-22T18:22:32.373Z,101295.00
2022-08-22T18:25:05.480Z,101315.22
2022-08-22T18:27:38.840Z,101295.59
2022-08-22T18:30:06.920Z,101299.31
2022-08-22T18:32:34.384Z,101287.72
2022-08-22T18:35:02.752Z,101291.25
2022-08-22T18:37:32.140Z,101291.84
2022-08-22T18:40:03.282Z,101298.75
2022-08-22T18:42:45.540Z,101319.28
2022-08-22T18:45:18.624Z,101305.13
2022-08-22T18:47:49.911Z,101310.50
2022-08-22T18:50:32.367Z,101300.97
2022-08-22T18:52:58.880Z,101323.72
2022-08-22T18:56:03.912Z,101306.94
2022-08-22T18:58:40.340Z,101329.69
2022-08-22T19:01:06.578Z,101326.44
2022-08-22T19:03:37.226Z,101313.31
2022-08-22T19:06:03.416Z,101297.91
2022-08-22T19:08:36.920Z,101277.31
2022-08-22T19:11:12.268Z,101281.72
2022-08-22T19:13:56.902Z,101308.25
2022-08-22T19:16:26.119Z,101281.63
2022-08-22T19:18:55.684Z,101293.03
2022-08-22T19:21:28.907Z,101295.50
2022-08-22T19:23:55.131Z,101305.41
2022-08-22T19:26:33.731Z,101299.31
2022-08-22T19:29:11.772Z,101298.88
2022-08-22T19:31:37.963Z,101294.59
2022-08-22T19:34:13.019Z,101296.22
2022-08-22T19:36:39.278Z,101289.28
2022-08-22T19:39:08.853Z,101285.72
2022-08-22T19:41:55.833Z,101294.59
2022-08-22T19:44:22.014Z,101292.47
2022-08-22T19:46:58.536Z,101310.91
2022-08-22T19:49:28.955Z,101295.94
2022-08-22T19:52:10.530Z,101311.34
2022-08-22T19:54:39.180Z,101316.66
2022-08-22T19:57:10.079Z,101289.72
2022-08-22T19:59:58.179Z,101306.91
2022-08-22T20:02:30.209Z,101333.06
2022-08-22T20:05:12.555Z,101334.78
2022-08-22T20:07:44.543Z,101324.63
2022-08-22T20:10:15.456Z,101333.47
2022-08-22T20:12:45.922Z,101327.59
2022-08-22T20:15:16.611Z,101327.94
2022-08-22T20:17:42.945Z,101330.16
2022-08-22T20:20:19.101Z,101343.72
2022-08-22T20:22:48.390Z,101344.31
2022-08-22T20:25:16.959Z,101351.00
2022-08-22T20:28:04.411Z,101352.38
2022-08-22T20:30:41.040Z,101342.34
2022-08-22T20:33:08.333Z,101341.84
2022-08-22T20:35:39.333Z,101342.59
2022-08-22T20:38:07.520Z,101331.44
2022-08-22T20:40:55.355Z,101312.25
2022-08-22T20:43:23.043Z,101294.16
2022-08-22T20:45:54.089Z,101303.47
2022-08-22T20:48:20.329Z,101312.19
2022-08-22T20:50:46.580Z,101298.22
2022-08-22T20:53:21.459Z,101290.66
2022-08-22T20:55:53.857Z,101286.13
2022-08-22T20:58:24.181Z,101288.91
2022-08-22T21:00:51.038Z,101308.56
2022-08-22T21:03:27.173Z,101320.28
2022-08-22T21:05:53.411Z,101330.94
2022-08-22T21:08:19.607Z,101334.72
2022-08-22T21:10:45.832Z,101329.38
2022-08-22T21:13:12.838Z,101324.63
2022-08-22T21:15:58.085Z,101331.28
2022-08-22T21:18:24.277Z,101317.97
2022-08-22T21:20:50.511Z,101307.75
2022-08-22T21:23:16.761Z,101307.50
2022-08-22T21:25:50.653Z,101312.81
2022-08-22T21:28:33.532Z,101317.56
2022-08-22T21:31:00.067Z,101305.91
2022-08-22T21:33:26.308Z,101296.56
2022-08-22T21:35:56.210Z,101289.53
2022-08-22T21:38:22.453Z,101293.84
2022-08-22T21:43:31.968Z,101311.34
2022-08-22T21:45:58.201Z,101313.19
2022-08-22T21:48:31.295Z,101307.63
2022-08-22T21:51:17.459Z,101287.78
2022-08-22T21:53:43.699Z,101290.50
2022-08-22T21:56:15.383Z,101296.91
2022-08-22T21:58:42.000Z,101300.06
2022-08-22T22:01:28.087Z,101307.69
2022-08-22T22:03:54.696Z,101285.22
2022-08-22T22:06:20.951Z,101281.00
2022-08-22T22:08:47.209Z,101295.59
2022-08-22T22:11:13.962Z,101285.13
2022-08-22T22:13:40.307Z,101292.53
2022-08-22T22:16:06.828Z,101293.31
2022-08-22T22:18:33.138Z,101290.09
2022-08-22T22:20:59.369Z,101285.03
2022-08-22T22:23:25.641Z,101280.09
2022-08-22T22:25:52.107Z,101282.19
2022-08-22T22:28:25.336Z,101288.53
2022-08-22T22:30:51.651Z,101278.25
2022-08-22T22:33:18.121Z,101272.69
2022-08-22T22:35:44.368Z,101268.91
2022-08-22T22:38:10.605Z,101262.66
2022-08-22T22:40:36.873Z,101261.31
2022-08-22T22:43:03.099Z,101257.72
2022-08-22T22:45:29.348Z,101254.59
2022-08-22T22:47:55.587Z,101257.25
2022-08-22T22:50:21.842Z,101256.72
2022-08-22T22:52:48.063Z,101251.22
2022-08-22T22:55:24.774Z,101249.91
2022-08-22T22:57:59.148Z,101238.06
2022-08-22T23:00:30.577Z,101239.06
2022-08-22T23:02:57.696Z,101235.09
2022-08-22T23:05:23.928Z,101235.84
2022-08-22T23:07:50.166Z,101233.47
2022-08-22T23:10:21.408Z,101222.13
2022-08-22T23:12:48.245Z,101214.72
2022-08-22T23:15:14.492Z,101215.25
2022-08-22T23:17:40.738Z,101204.91
2022-08-22T23:20:07.172Z,101206.16
2022-08-22T23:22:33.409Z,101197.78
2022-08-22T23:24:59.654Z,101196.97
2022-08-22T23:27:25.889Z,101194.59
2022-08-22T23:29:52.132Z,101198.03
2022-08-22T23:32:18.367Z,101191.69
2022-08-22T23:34:46.629Z,101202.78
2022-08-22T23:37:14.145Z,101196.50
2022-08-22T23:39:40.429Z,101191.50
2022-08-22T23:42:06.974Z,101199.63
2022-08-22T23:44:33.939Z,101202.25
2022-08-22T23:47:00.448Z,101198.09
2022-08-22T23:49:26.992Z,101193.09
2022-08-22T23:51:53.220Z,101199.41
2022-08-22T23:54:19.454Z,101191.00
2022-08-22T23:56:49.697Z,101195.25
2022-08-22T23:59:17.146Z,101193.97
